Time;durP1;ratioP1;P1;durP2;ratioP2;P2;SDS_P1;SDS_P2;PMS_P1;PMS_P2;Temp;Humidity;BMP_temperature;BMP_pressure;BME280_temperature;BME280_humidity;BME280_pressure;Samples;Min_cycle;Max_cycle;Signal;HPM_P1;HPM_P2
2023/09/21 00:02:18;;;;;;;17.20;11.80;;;;;;;;;;5050912;28;20021;-60
2023/09/21 00:04:44;;;;;;;22.55;12.25;;;;;;;;;;5050985;28;20074;-59
2023/09/21 00:07:10;;;;;;;18.23;11.90;;;;;;;;;;5051431;28;20479;-59
2023/09/21 00:09:36;;;;;;;17.98;12.25;;;;;;;;;;5051014;28;20175;-61
2023/09/21 00:12:03;;;;;;;18.38;11.70;;;;;;;;;;5050986;28;20045;-60
2023/09/21 00:14:30;;;;;;;17.13;12.48;;;;;;;;;;5050811;28;20391;-58
2023/09/21 00:16:56;;;;;;;17.35;11.75;;;;;;;;;;5050543;28;20021;-58
2023/09/21 00:19:23;;;;;;;16.92;11.52;;;;;;;;;;5050131;28;20469;-60
2023/09/21 00:21:49;;;;;;;16.77;11.73;;;;;;;;;;5050356;28;20020;-60
2023/09/21 00:24:15;;;;;;;17.00;11.80;;;;;;;;;;5068612;28;20035;-60
2023/09/21 00:26:45;;;;;;;16.52;11.98;;;;;;;;;;5070126;28;20081;-59
2023/09/21 00:29:11;;;;;;;15.45;11.40;;;;;;;;;;5070207;28;20047;-57
2023/09/21 00:31:37;;;;;;;18.67;12.15;;;;;;;;;;5069959;28;20032;-60
2023/09/21 00:34:05;;;;;;;16.58;11.80;;;;;;;;;;5070079;28;20024;-60
2023/09/21 00:36:31;;;;;;;16.35;11.93;;;;;;;;;;5070010;28;20029;-60
2023/09/21 00:38:57;;;;;;;17.35;11.70;;;;;;;;;;5070168;28;20084;-60
2023/09/21 00:41:23;;;;;;;17.60;12.38;;;;;;;;;;5069932;28;20024;-60
2023/09/21 00:43:49;;;;;;;17.05;11.43;;;;;;;;;;5070160;28;20052;-58
2023/09/21 00:46:15;;;;;;;19.30;12.65;;;;;;;;;;5070113;28;20532;-61
2023/09/21 00:48:42;;;;;;;19.00;12.43;;;;;;;;;;5069924;28;20025;-58
2023/09/21 00:51:10;;;;;;;17.55;12.40;;;;;;;;;;5069886;28;20085;-62
2023/09/21 00:53:39;;;;;;;16.00;11.70;;;;;;;;;;5070128;28;20113;-57
2023/09/21 00:56:11;;;;;;;16.80;12.40;;;;;;;;;;5051948;28;20056;-58
2023/09/21 00:58:39;;;;;;;16.45;12.73;;;;;;;;;;5070255;28;20028;-60
2023/09/21 01:01:05;;;;;;;16.88;12.30;;;;;;;;;;5069835;28;20504;-58
2023/09/21 01:03:37;;;;;;;17.70;11.68;;;;;;;;;;5070029;28;20031;-60
2023/09/21 01:06:05;;;;;;;18.33;12.40;;;;;;;;;;5070138;28;20482;-58
2023/09/21 01:08:33;;;;;;;16.60;11.90;;;;;;;;;;5070006;28;20044;-57
2023/09/21 01:11:04;;;;;;;16.65;12.07;;;;;;;;;;5069938;28;20028;-59
2023/09/21 01:13:31;;;;;;;16.98;12.50;;;;;;;;;;5069850;28;20020;-60
2023/09/21 01:16:01;;;;;;;16.00;11.73;;;;;;;;;;5051772;28;20024;-59
2023/09/21 01:18:27;;;;;;;18.85;12.02;;;;;;;;;;5069739;28;20398;-61
2023/09/21 01:20:59;;;;;;;17.73;11.95;;;;;;;;;;5069815;28;20027;-60
2023/09/21 01:23:52;;;;;;;16.85;12.15;;;;;;;;;;5070032;28;20016;-59
2023/09/21 01:26:19;;;;;;;18.23;12.45;;;;;;;;;;5065502;28;20112;-57
2023/09/21 01:28:47;;;;;;;17.52;12.05;;;;;;;;;;5069993;28;20029;-59
2023/09/21 01:31:13;;;;;;;17.25;12.00;;;;;;;;;;5072024;28;20047;-59
2023/09/21 01:33:39;;;;;;;16.77;11.98;;;;;;;;;;5073650;28;20059;-58
2023/09/21 01:36:12;;;;;;;17.15;12.27;;;;;;;;;;5073384;28;20032;-59
2023/09/21 01:38:38;;;;;;;19.17;11.93;;;;;;;;;;5073635;28;20515;-58
2023/09/21 01:41:06;;;;;;;17.33;12.18;;;;;;;;;;5073341;28;20051;-58
2023/09/21 01:43:35;;;;;;;17.52;12.27;;;;;;;;;;5073761;28;20036;-60
2023/09/21 01:46:01;;;;;;;16.77;11.95;;;;;;;;;;5073302;28;20041;-58
2023/09/21 01:48:27;;;;;;;15.77;11.38;;;;;;;;;;5073301;28;20031;-59
2023/09/21 01:50:57;;;;;;;16.90;11.80;;;;;;;;;;5072999;28;20012;-57
2023/09/21 01:53:23;;;;;;;16.38;12.25;;;;;;;;;;5073119;28;20020;-57
2023/09/21 01:55:50;;;;;;;16.75;11.50;;;;;;;;;;5072930;28;20394;-58
2023/09/21 01:58:16;;;;;;;17.30;11.95;;;;;;;;;;5073093;28;20024;-58
2023/09/21 02:00:43;;;;;;;18.23;12.13;;;;;;;;;;5072565;28;20027;-59
2023/09/21 02:03:12;;;;;;;16.30;11.63;;;;;;;;;;5073182;28;20040;-56
2023/09/21 02:05:38;;;;;;;17.13;12.05;;;;;;;;;;5072886;28;20108;-59
2023/09/21 02:08:05;;;;;;;17.98;11.70;;;;;;;;;;5072881;28;20032;-58
2023/09/21 02:10:35;;;;;;;16.00;11.43;;;;;;;;;;5054762;28;20607;-58
2023/09/21 02:13:02;;;;;;;16.90;11.40;;;;;;;;;;5054826;28;20025;-57
2023/09/21 02:15:29;;;;;;;16.80;11.63;;;;;;;;;;5072624;28;20090;-57
2023/09/21 02:17:55;;;;;;;16.42;11.95;;;;;;;;;;5054841;28;20073;-57
2023/09/21 02:20:26;;;;;;;18.02;12.07;;;;;;;;;;5072711;28;20504;-56
2023/09/21 02:22:53;;;;;;;16.63;11.48;;;;;;;;;;5072866;28;20059;-59
2023/09/21 02:25:19;;;;;;;15.85;11.95;;;;;;;;;;5072628;28;20096;-54
2023/09/21 02:27:49;;;;;;;17.33;12.10;;;;;;;;;;5072630;28;20074;-56
2023/09/21 02:30:17;;;;;;;17.27;12.32;;;;;;;;;;5072789;28;20093;-57
2023/09/21 02:32:48;;;;;;;18.70;12.35;;;;;;;;;;5073049;28;20492;-57
2023/09/21 02:35:16;;;;;;;17.05;12.00;;;;;;;;;;5072307;28;20382;-57
2023/09/21 02:37:43;;;;;;;18.20;12.15;;;;;;;;;;5072446;28;20163;-58
2023/09/21 02:40:10;;;;;;;15.77;12.18;;;;;;;;;;5072074;28;20551;-58
2023/09/21 02:42:37;;;;;;;16.48;11.68;;;;;;;;;;5072335;28;20052;-57
2023/09/21 02:45:04;;;;;;;16.42;11.60;;;;;;;;;;5072079;28;20033;-54
2023/09/21 02:47:30;;;;;;;16.05;11.52;;;;;;;;;;5072160;28;20170;-58
2023/09/21 02:49:56;;;;;;;17.05;11.60;;;;;;;;;;5071865;28;20033;-60
2023/09/21 02:52:22;;;;;;;19.40;11.65;;;;;;;;;;5071800;28;20031;-59
2023/09/21 02:54:48;;;;;;;16.90;11.63;;;;;;;;;;5071937;28;20024;-58
2023/09/21 02:57:14;;;;;;;17.23;11.80;;;;;;;;;;5071908;28;20629;-58
2023/09/21 02:59:40;;;;;;;19.92;12.15;;;;;;;;;;5071921;28;20126;-60
2023/09/21 03:02:09;;;;;;;18.92;11.82;;;;;;;;;;5053872;28;20115;-57
2023/09/21 03:04:35;;;;;;;18.02;11.73;;;;;;;;;;5071964;28;20025;-60
2023/09/21 03:07:01;;;;;;;17.67;11.60;;;;;;;;;;5071779;28;20082;-60
2023/09/21 03:09:27;;;;;;;17.00;11.45;;;;;;;;;;5071573;28;20078;-56
2023/09/21 03:11:53;;;;;;;16.63;11.70;;;;;;;;;;5071513;28;20022;-59
2023/09/21 03:14:20;;;;;;;16.40;11.73;;;;;;;;;;5071539;28;20036;-60
2023/09/21 03:16:47;;;;;;;18.50;11.80;;;;;;;;;;5071708;28;20017;-58
2023/09/21 03:19:13;;;;;;;16.35;11.75;;;;;;;;;;5053702;28;20021;-58
2023/09/21 03:21:40;;;;;;;15.75;11.45;;;;;;;;;;5053307;28;20081;-53
2023/09/21 03:24:07;;;;;;;16.90;12.05;;;;;;;;;;5071230;28;20039;-58
2023/09/21 03:26:35;;;;;;;17.77;11.45;;;;;;;;;;5071275;28;20028;-57
2023/09/21 03:29:03;;;;;;;17.65;12.75;;;;;;;;;;5071366;28;20449;-57
2023/09/21 03:31:29;;;;;;;17.30;12.00;;;;;;;;;;5071181;28;20017;-57
2023/09/21 03:33:55;;;;;;;16.65;12.20;;;;;;;;;;5071168;28;20035;-58
2023/09/21 03:36:21;;;;;;;17.27;11.90;;;;;;;;;;5071164;28;20032;-55
2023/09/21 03:38:47;;;;;;;15.85;11.80;;;;;;;;;;5071117;28;20363;-56
2023/09/21 03:41:14;;;;;;;16.17;12.15;;;;;;;;;;5070783;28;20046;-59
2023/09/21 03:43:43;;;;;;;16.35;11.52;;;;;;;;;;5070989;28;20082;-59
2023/09/21 03:46:09;;;;;;;17.55;11.48;;;;;;;;;;5070735;28;20029;-57
2023/09/21 03:48:35;;;;;;;18.10;11.90;;;;;;;;;;5070806;28;20032;-56
2023/09/21 03:51:03;;;;;;;16.52;11.90;;;;;;;;;;5070442;28;20448;-60
2023/09/21 03:53:29;;;;;;;16.90;11.52;;;;;;;;;;5070138;28;20016;-58
2023/09/21 03:55:56;;;;;;;16.73;11.93;;;;;;;;;;5052735;28;20038;-58
2023/09/21 03:58:22;;;;;;;16.20;11.55;;;;;;;;;;5070739;28;20132;-55
2023/09/21 04:00:48;;;;;;;16.83;11.70;;;;;;;;;;5070701;28;20028;-57
2023/09/21 04:03:16;;;;;;;16.75;12.20;;;;;;;;;;5070695;28;20016;-60
2023/09/21 04:05:42;;;;;;;20.25;13.15;;;;;;;;;;5070527;28;20032;-59
2023/09/21 04:08:09;;;;;;;17.63;11.93;;;;;;;;;;5070447;28;20077;-59
2023/09/21 04:10:36;;;;;;;16.77;12.13;;;;;;;;;;5070196;28;20053;-58
2023/09/21 04:13:02;;;;;;;18.00;12.80;;;;;;;;;;5070467;28;20029;-59
2023/09/21 04:15:29;;;;;;;17.10;13.10;;;;;;;;;;5070289;28;20025;-58
2023/09/21 04:17:55;;;;;;;16.80;12.65;;;;;;;;;;5070159;28;20402;-60
2023/09/21 04:20:22;;;;;;;18.42;12.85;;;;;;;;;;5070247;28;20466;-60
2023/09/21 04:22:49;;;;;;;17.20;13.10;;;;;;;;;;5070352;28;20052;-60
2023/09/21 04:25:16;;;;;;;18.80;12.88;;;;;;;;;;5070069;28;20021;-57
2023/09/21 04:27:43;;;;;;;16.10;11.88;;;;;;;;;;5052455;28;20111;-59
2023/09/21 04:30:17;;;;;;;18.42;12.45;;;;;;;;;;5070070;28;20028;-60
2023/09/21 04:32:46;;;;;;;16.75;12.20;;;;;;;;;;5070364;28;20031;-59
2023/09/21 04:35:12;;;;;;;18.08;11.93;;;;;;;;;;5070035;28;20409;-60
2023/09/21 04:37:38;;;;;;;19.65;12.00;;;;;;;;;;5070317;28;20020;-59
2023/09/21 04:40:11;;;;;;;18.77;12.70;;;;;;;;;;5069785;28;20025;-59
2023/09/21 04:42:38;;;;;;;17.90;12.30;;;;;;;;;;5070102;28;20024;-60
2023/09/21 04:45:09;;;;;;;16.92;12.07;;;;;;;;;;5070053;28;20107;-57
2023/09/21 04:47:35;;;;;;;18.05;12.15;;;;;;;;;;5070160;28;20493;-59
2023/09/21 04:50:01;;;;;;;17.10;11.85;;;;;;;;;;5069793;28;20028;-57
2023/09/21 04:52:27;;;;;;;20.50;11.77;;;;;;;;;;5052120;28;20081;-58
2023/09/21 04:54:53;;;;;;;17.30;12.23;;;;;;;;;;5069763;28;20024;-57
2023/09/21 04:57:19;;;;;;;18.85;12.40;;;;;;;;;;5069810;28;20048;-59
2023/09/21 04:59:46;;;;;;;16.75;12.30;;;;;;;;;;5069587;28;20025;-57
2023/09/21 05:02:12;;;;;;;17.52;12.02;;;;;;;;;;5070008;28;20035;-59
2023/09/21 05:04:38;;;;;;;17.00;12.55;;;;;;;;;;5051743;28;20020;-60
2023/09/21 05:07:06;;;;;;;17.67;12.48;;;;;;;;;;5073719;28;20105;-58
2023/09/21 05:09:32;;;;;;;18.92;12.57;;;;;;;;;;5074026;28;20052;-60
2023/09/21 05:11:58;;;;;;;16.27;12.25;;;;;;;;;;5073938;28;20100;-61
2023/09/21 05:14:25;;;;;;;18.50;12.90;;;;;;;;;;5073985;28;20078;-60
2023/09/21 05:16:56;;;;;;;17.20;12.90;;;;;;;;;;5073678;28;20421;-58
2023/09/21 05:19:22;;;;;;;17.33;12.88;;;;;;;;;;5073584;28;20035;-59
2023/09/21 05:21:48;;;;;;;17.55;13.60;;;;;;;;;;5055430;28;20025;-58
2023/09/21 05:24:14;;;;;;;16.33;13.00;;;;;;;;;;5073495;28;20028;-58
2023/09/21 05:26:40;;;;;;;18.15;13.23;;;;;;;;;;5073737;28;20020;-58
2023/09/21 05:29:06;;;;;;;18.10;13.57;;;;;;;;;;5073320;28;20040;-59
2023/09/21 05:31:32;;;;;;;18.10;13.93;;;;;;;;;;5073369;28;20037;-59
2023/09/21 05:34:00;;;;;;;17.98;13.02;;;;;;;;;;5073245;28;20533;-56
2023/09/21 05:36:26;;;;;;;16.60;12.68;;;;;;;;;;5073685;28;20174;-59
2023/09/21 05:38:52;;;;;;;17.77;13.10;;;;;;;;;;5073251;28;20025;-59
2023/09/21 05:41:18;;;;;;;17.17;13.40;;;;;;;;;;5072960;28;20489;-53
2023/09/21 05:43:44;;;;;;;18.17;13.27;;;;;;;;;;5073230;28;20127;-59
2023/09/21 05:46:11;;;;;;;18.15;13.35;;;;;;;;;;5073136;28;20021;-57
2023/09/21 05:48:38;;;;;;;19.02;13.63;;;;;;;;;;5055702;28;20393;-60
2023/09/21 05:51:04;;;;;;;18.23;13.50;;;;;;;;;;5072689;28;20025;-58
2023/09/21 05:53:31;;;;;;;18.10;13.30;;;;;;;;;;5072922;28;20020;-58
2023/09/21 05:55:57;;;;;;;18.80;13.40;;;;;;;;;;5073089;28;20017;-59
2023/09/21 05:58:24;;;;;;;18.45;13.57;;;;;;;;;;5072917;28;20028;-63
2023/09/21 06:00:52;;;;;;;17.58;13.32;;;;;;;;;;5072260;28;20064;-59
2023/09/21 06:03:18;;;;;;;18.13;13.38;;;;;;;;;;5072557;28;20063;-59
2023/09/21 06:05:45;;;;;;;23.50;14.23;;;;;;;;;;5071971;28;20029;-60
2023/09/21 06:08:11;;;;;;;18.50;13.90;;;;;;;;;;5072792;28;20029;-54
2023/09/21 06:10:37;;;;;;;17.75;13.40;;;;;;;;;;5071929;28;20031;-57
2023/09/21 06:13:07;;;;;;;17.85;12.77;;;;;;;;;;5072584;28;20029;-58
2023/09/21 06:15:33;;;;;;;18.08;13.60;;;;;;;;;;5072471;28;20052;-50
2023/09/21 06:18:00;;;;;;;17.50;13.82;;;;;;;;;;5072006;28;20366;-50
2023/09/21 06:20:26;;;;;;;17.70;14.02;;;;;;;;;;5072546;28;20040;-49
2023/09/21 06:22:52;;;;;;;25.55;13.73;;;;;;;;;;5072181;28;20331;-56
2023/09/21 06:25:20;;;;;;;16.98;13.45;;;;;;;;;;5072277;28;20035;-56
2023/09/21 06:27:46;;;;;;;18.30;13.25;;;;;;;;;;5072488;28;20043;-49
2023/09/21 06:30:15;;;;;;;18.23;13.60;;;;;;;;;;5071921;28;20366;-51
2023/09/21 06:32:41;;;;;;;17.50;14.00;;;;;;;;;;5072471;28;20082;-54
2023/09/21 06:35:08;;;;;;;20.10;13.55;;;;;;;;;;5071642;28;20039;-55
2023/09/21 06:37:35;;;;;;;16.63;12.88;;;;;;;;;;5072066;28;20039;-52
2023/09/21 06:40:02;;;;;;;17.60;13.40;;;;;;;;;;5071378;28;20024;-53
2023/09/21 06:42:28;;;;;;;16.95;12.63;;;;;;;;;;5070861;28;20028;-51
2023/09/21 06:44:54;;;;;;;16.63;11.93;;;;;;;;;;5063846;28;20183;-47
2023/09/21 06:47:22;;;;;;;17.15;11.82;;;;;;;;;;5069505;28;20056;-51
2023/09/21 06:49:49;;;;;;;17.70;12.63;;;;;;;;;;5070740;28;20213;-53
2023/09/21 06:52:17;;;;;;;17.40;12.73;;;;;;;;;;5071679;28;20024;-55
2023/09/21 06:54:44;;;;;;;17.00;13.00;;;;;;;;;;5070990;28;20017;-56
2023/09/21 06:57:10;;;;;;;18.83;13.15;;;;;;;;;;5071095;28;20016;-55
2023/09/21 06:59:36;;;;;;;17.55;13.60;;;;;;;;;;5071055;28;20127;-53
2023/09/21 07:02:04;;;;;;;17.65;13.23;;;;;;;;;;5070931;28;20029;-56
2023/09/21 07:04:33;;;;;;;17.53;12.60;;;;;;;;;;5071559;28;20094;-52
2023/09/21 07:07:05;;;;;;;17.27;12.02;;;;;;;;;;5071475;28;20674;-53
2023/09/21 07:09:31;;;;;;;17.15;12.63;;;;;;;;;;5071541;28;20142;-54
2023/09/21 07:11:57;;;;;;;18.60;12.88;;;;;;;;;;5053348;28;20037;-54
2023/09/21 07:14:23;;;;;;;17.35;13.02;;;;;;;;;;5053127;28;20029;-55
2023/09/21 07:16:49;;;;;;;16.60;12.95;;;;;;;;;;5071471;28;20545;-56
2023/09/21 07:19:15;;;;;;;19.23;12.98;;;;;;;;;;5053315;28;20034;-52
2023/09/21 07:21:41;;;;;;;18.33;13.93;;;;;;;;;;5071282;28;20025;-55
2023/09/21 07:24:08;;;;;;;18.58;13.25;;;;;;;;;;5071289;28;20082;-56
2023/09/21 07:26:34;;;;;;;16.90;13.15;;;;;;;;;;5071171;28;20064;-53
2023/09/21 07:29:06;;;;;;;18.00;13.45;;;;;;;;;;5070630;28;20069;-54
2023/09/21 07:31:33;;;;;;;20.95;13.68;;;;;;;;;;5071053;28;20032;-55
2023/09/21 07:34:01;;;;;;;17.38;13.88;;;;;;;;;;5071221;28;20035;-56
2023/09/21 07:36:27;;;;;;;17.98;13.77;;;;;;;;;;5070741;28;20047;-55
2023/09/21 07:38:55;;;;;;;17.42;13.30;;;;;;;;;;5071008;28;20487;-55
2023/09/21 07:41:21;;;;;;;17.27;13.25;;;;;;;;;;5070929;28;20025;-53
2023/09/21 07:43:48;;;;;;;18.55;13.98;;;;;;;;;;5052995;28;20070;-56
2023/09/21 07:46:14;;;;;;;17.13;12.88;;;;;;;;;;5070957;28;20533;-53
2023/09/21 07:48:41;;;;;;;19.10;13.43;;;;;;;;;;5070878;28;20041;-53
2023/09/21 07:51:07;;;;;;;17.05;13.75;;;;;;;;;;5070356;28;20095;-56
2023/09/21 07:53:33;;;;;;;17.08;13.60;;;;;;;;;;5070817;28;20043;-55
2023/09/21 07:56:06;;;;;;;19.17;14.32;;;;;;;;;;5070946;28;20085;-55
2023/09/21 07:58:32;;;;;;;18.45;14.30;;;;;;;;;;5070724;28;20079;-55
2023/09/21 08:00:58;;;;;;;17.85;14.15;;;;;;;;;;5070066;28;20020;-56
2023/09/21 08:03:27;;;;;;;17.60;13.88;;;;;;;;;;5070211;28;20051;-56
2023/09/21 08:05:53;;;;;;;17.92;14.00;;;;;;;;;;5070239;28;20028;-56
2023/09/21 08:08:19;;;;;;;19.63;14.07;;;;;;;;;;5070562;28;20032;-56
2023/09/21 08:10:45;;;;;;;18.73;13.05;;;;;;;;;;5052306;28;20051;-55
2023/09/21 08:13:12;;;;;;;20.15;13.27;;;;;;;;;;5070592;28;20032;-53
2023/09/21 08:15:39;;;;;;;19.88;13.05;;;;;;;;;;5070240;28;20040;-50
2023/09/21 08:18:07;;;;;;;20.05;13.98;;;;;;;;;;5070581;28;20031;-50
2023/09/21 08:20:33;;;;;;;17.65;12.60;;;;;;;;;;5052060;28;20021;-52
2023/09/21 08:22:59;;;;;;;17.30;13.68;;;;;;;;;;5070230;28;20025;-54
2023/09/21 08:25:25;;;;;;;17.23;13.07;;;;;;;;;;5070193;28;20052;-53
2023/09/21 08:27:51;;;;;;;18.02;13.40;;;;;;;;;;5070510;28;20366;-53
2023/09/21 08:30:17;;;;;;;18.80;13.02;;;;;;;;;;5052467;28;20410;-52
2023/09/21 08:32:43;;;;;;;16.70;12.98;;;;;;;;;;5069938;28;20035;-52
2023/09/21 08:35:11;;;;;;;17.45;13.00;;;;;;;;;;5069694;28;20028;-52
2023/09/21 08:37:37;;;;;;;20.90;14.13;;;;;;;;;;5070306;28;20111;-50
2023/09/21 08:40:06;;;;;;;17.33;13.48;;;;;;;;;;5069957;28;20025;-54
2023/09/21 08:42:35;;;;;;;16.40;13.00;;;;;;;;;;5051951;28;20549;-57
2023/09/21 08:45:02;;;;;;;17.75;13.93;;;;;;;;;;5070163;28;20123;-52
2023/09/21 08:47:28;;;;;;;17.10;12.93;;;;;;;;;;5069836;28;20029;-55
2023/09/21 08:49:55;;;;;;;18.63;12.98;;;;;;;;;;5051961;28;20032;-56
2023/09/21 08:52:21;;;;;;;18.05;13.20;;;;;;;;;;5069927;28;20031;-58
2023/09/21 08:54:49;;;;;;;18.83;14.05;;;;;;;;;;5069871;28;20466;-56
2023/09/21 08:57:15;;;;;;;18.27;13.48;;;;;;;;;;5067541;28;20029;-54
2023/09/21 08:59:41;;;;;;;17.02;13.73;;;;;;;;;;5066232;28;20027;-56
2023/09/21 09:02:14;;;;;;;19.05;13.32;;;;;;;;;;5069860;28;20031;-55
2023/09/21 09:04:43;;;;;;;16.98;13.05;;;;;;;;;;5069807;28;20502;-49
2023/09/21 09:07:13;;;;;;;16.10;12.70;;;;;;;;;;5053558;28;20029;-55
2023/09/21 09:09:39;;;;;;;17.75;13.30;;;;;;;;;;5049598;28;20039;-55
2023/09/21 09:12:21;;;;;;;16.45;13.20;;;;;;;;;;5049577;28;20483;-52
2023/09/21 09:14:47;;;;;;;17.63;13.35;;;;;;;;;;5058407;28;20024;-57
2023/09/21 09:17:14;;;;;;;18.83;14.10;;;;;;;;;;5069769;28;20043;-51
2023/09/21 09:19:41;;;;;;;20.55;14.35;;;;;;;;;;5069793;28;20025;-53
2023/09/21 09:22:07;;;;;;;18.58;13.88;;;;;;;;;;5052116;28;20039;-53
2023/09/21 09:24:33;;;;;;;16.55;13.73;;;;;;;;;;5049531;28;20104;-55
2023/09/21 09:27:00;;;;;;;16.98;12.90;;;;;;;;;;5049579;28;20028;-54
2023/09/21 09:29:26;;;;;;;19.00;14.00;;;;;;;;;;5049310;28;20029;-56
2023/09/21 09:31:52;;;;;;;18.15;13.00;;;;;;;;;;5057686;28;20025;-55
2023/09/21 09:34:18;;;;;;;17.25;13.50;;;;;;;;;;5069109;28;20032;-54
2023/09/21 09:36:51;;;;;;;17.10;12.48;;;;;;;;;;5068386;28;20066;-52
2023/09/21 09:39:19;;;;;;;17.98;12.70;;;;;;;;;;5069446;28;20486;-57
2023/09/21 09:41:46;;;;;;;17.15;12.60;;;;;;;;;;5069739;28;20012;-53
2023/09/21 09:44:15;;;;;;;16.42;13.10;;;;;;;;;;5069552;28;20020;-56
2023/09/21 09:46:43;;;;;;;16.77;12.95;;;;;;;;;;5069413;28;20021;-53
2023/09/21 09:49:10;;;;;;;19.80;13.00;;;;;;;;;;5051248;28;20070;-59
2023/09/21 09:51:41;;;;;;;17.33;12.88;;;;;;;;;;5052516;28;20039;-60
2023/09/21 09:54:11;;;;;;;19.17;13.90;;;;;;;;;;5055111;28;20505;-55
2023/09/21 09:56:44;;;;;;;18.50;13.82;;;;;;;;;;5073269;28;20548;-54
2023/09/21 09:59:14;;;;;;;18.80;13.75;;;;;;;;;;5055454;28;20428;-60
2023/09/21 10:01:41;;;;;;;17.73;12.95;;;;;;;;;;5072652;28;20370;-61
2023/09/21 10:04:07;;;;;;;17.58;13.55;;;;;;;;;;5072860;28;20036;-54
2023/09/21 10:06:36;;;;;;;19.17;13.48;;;;;;;;;;5072879;28;20044;-56
2023/09/21 10:09:09;;;;;;;17.10;13.05;;;;;;;;;;5072672;28;20039;-53
2023/09/21 10:11:38;;;;;;;17.75;12.98;;;;;;;;;;5072687;28;20043;-53
2023/09/21 10:14:04;;;;;;;;;;;;;;;;;;5073334;28;20338;-51
2023/09/21 10:16:31;;;;;;;25.92;14.32;;;;;;;;;;5072509;28;19905;-54
2023/09/21 10:19:00;;;;;;;17.98;13.10;;;;;;;;;;5072246;28;20390;-54
2023/09/21 10:21:33;;;;;;;19.00;12.98;;;;;;;;;;5072678;28;20096;-56
2023/09/21 10:23:59;;;;;;;17.67;12.70;;;;;;;;;;5072512;28;20493;-50
2023/09/21 10:26:26;;;;;;;18.52;12.77;;;;;;;;;;5072443;28;20074;-50
2023/09/21 10:28:53;;;;;;;18.67;12.98;;;;;;;;;;5072311;28;20119;-51
2023/09/21 10:31:27;;;;;;;17.15;12.65;;;;;;;;;;5054271;28;20028;-54
2023/09/21 10:33:56;;;;;;;16.25;13.38;;;;;;;;;;5072592;28;20073;-50
2023/09/21 10:36:22;;;;;;;17.67;12.65;;;;;;;;;;5072641;28;20025;-51
2023/09/21 10:39:06;;;;;;;16.45;12.57;;;;;;;;;;5072551;28;20094;-53
2023/09/21 10:41:36;;;;;;;22.08;12.90;;;;;;;;;;5072303;28;20028;-54
2023/09/21 10:44:06;;;;;;;17.45;13.02;;;;;;;;;;5072314;28;20038;-54
2023/09/21 10:46:33;;;;;;;16.10;12.88;;;;;;;;;;5071994;28;20044;-54
2023/09/21 10:49:12;;;;;;;16.63;12.60;;;;;;;;;;5071388;28;20028;-52
2023/09/21 10:51:41;;;;;;;18.77;14.15;;;;;;;;;;5072036;28;20047;-51
2023/09/21 10:54:07;;;;;;;16.15;12.35;;;;;;;;;;5053855;28;20363;-55
2023/09/21 10:56:37;;;;;;;17.27;12.55;;;;;;;;;;5071340;28;20094;-53
2023/09/21 10:59:03;;;;;;;18.30;12.35;;;;;;;;;;5071469;28;20020;-53
2023/09/21 11:01:30;;;;;;;16.65;12.63;;;;;;;;;;5071512;28;20023;-52
2023/09/21 11:03:58;;;;;;;15.98;12.90;;;;;;;;;;5070602;28;20027;-56
2023/09/21 11:06:25;;;;;;;17.85;12.85;;;;;;;;;;5071371;28;20050;-54
2023/09/21 11:08:52;;;;;;;16.25;12.45;;;;;;;;;;5071247;28;20092;-53
2023/09/21 11:11:22;;;;;;;17.55;13.13;;;;;;;;;;5070774;28;20382;-55
2023/09/21 11:13:51;;;;;;;16.58;12.95;;;;;;;;;;5071039;28;20025;-52
2023/09/21 11:16:17;;;;;;;16.33;13.00;;;;;;;;;;5071311;28;20525;-54
2023/09/21 11:18:44;;;;;;;17.55;12.43;;;;;;;;;;5071354;28;20101;-54
2023/09/21 11:21:11;;;;;;;18.02;12.93;;;;;;;;;;5071137;28;20029;-55
2023/09/21 11:23:37;;;;;;;16.75;12.70;;;;;;;;;;5052865;28;20414;-56
2023/09/21 11:26:05;;;;;;;16.52;12.77;;;;;;;;;;5070077;28;20025;-54
2023/09/21 11:28:35;;;;;;;16.20;13.00;;;;;;;;;;5053002;28;20035;-52
2023/09/21 11:31:05;;;;;;;16.05;12.75;;;;;;;;;;5053338;28;20563;-53
2023/09/21 11:33:34;;;;;;;16.48;12.85;;;;;;;;;;5071133;28;20037;-56
2023/09/21 11:36:00;;;;;;;16.40;12.45;;;;;;;;;;5070655;28;20039;-55
2023/09/21 11:38:26;;;;;;;17.05;12.88;;;;;;;;;;5070900;28;20017;-53
2023/09/21 11:40:53;;;;;;;18.42;12.63;;;;;;;;;;5053046;28;20477;-55
2023/09/21 11:43:20;;;;;;;17.23;12.23;;;;;;;;;;5070728;28;20016;-51
2023/09/21 11:45:49;;;;;;;18.25;13.90;;;;;;;;;;5070652;28;20031;-57
2023/09/21 11:48:15;;;;;;;17.58;13.15;;;;;;;;;;5070777;28;20036;-58
2023/09/21 11:50:44;;;;;;;15.90;12.50;;;;;;;;;;5069900;28;20028;-57
2023/09/21 11:53:10;;;;;;;17.88;13.50;;;;;;;;;;5070449;28;20031;-54
2023/09/21 11:55:36;;;;;;;17.08;13.60;;;;;;;;;;5052515;28;20038;-54
2023/09/21 11:58:15;;;;;;;18.95;12.88;;;;;;;;;;5070376;28;20020;-53
2023/09/21 12:00:49;;;;;;;18.42;13.93;;;;;;;;;;5070445;28;20115;-55
2023/09/21 12:03:16;;;;;;;16.10;12.98;;;;;;;;;;5071060;28;20023;-56
2023/09/21 12:05:45;;;;;;;17.00;13.10;;;;;;;;;;5070826;28;20101;-56
2023/09/21 12:08:14;;;;;;;17.30;13.18;;;;;;;;;;5070693;28;20071;-54
2023/09/21 12:10:47;;;;;;;16.00;12.52;;;;;;;;;;5070489;28;20111;-55
2023/09/21 12:13:16;;;;;;;16.42;13.15;;;;;;;;;;5070536;28;20490;-55
2023/09/21 12:15:42;;;;;;;17.60;13.00;;;;;;;;;;5069955;28;20058;-53
2023/09/21 12:18:10;;;;;;;17.80;12.90;;;;;;;;;;5070323;28;20021;-53
2023/09/21 12:20:36;;;;;;;16.25;12.32;;;;;;;;;;5052627;28;20163;-55
2023/09/21 12:23:07;;;;;;;15.93;11.98;;;;;;;;;;5070179;28;20362;-52
2023/09/21 12:25:33;;;;;;;17.23;12.23;;;;;;;;;;5070135;28;20410;-55
2023/09/21 12:27:59;;;;;;;16.98;12.43;;;;;;;;;;5061373;28;20394;-53
2023/09/21 12:30:25;;;;;;;16.98;13.10;;;;;;;;;;5050116;28;20108;-52
2023/09/21 12:32:51;;;;;;;17.77;12.50;;;;;;;;;;5050137;28;20490;-55
2023/09/21 12:35:19;;;;;;;16.50;12.52;;;;;;;;;;5050038;28;20044;-56
2023/09/21 12:37:45;;;;;;;17.27;13.88;;;;;;;;;;5050414;28;20027;-56
2023/09/21 12:40:15;;;;;;;16.58;12.77;;;;;;;;;;5050241;28;20040;-55
2023/09/21 12:42:42;;;;;;;17.35;12.57;;;;;;;;;;5050391;28;20092;-56
2023/09/21 12:45:11;;;;;;;16.45;13.27;;;;;;;;;;5050096;28;20029;-56
2023/09/21 12:47:39;;;;;;;17.25;13.68;;;;;;;;;;5049801;28;20041;-56
2023/09/21 12:50:06;;;;;;;17.60;13.43;;;;;;;;;;5049606;28;20441;-57
2023/09/21 12:52:32;;;;;;;16.23;12.77;;;;;;;;;;5050013;28;20529;-56
2023/09/21 12:55:00;;;;;;;17.02;13.38;;;;;;;;;;5049659;28;20021;-56
2023/09/21 12:57:27;;;;;;;16.38;13.45;;;;;;;;;;5050331;28;20539;-54
2023/09/21 12:59:54;;;;;;;20.08;12.73;;;;;;;;;;5057482;28;20028;-58
2023/09/21 13:02:25;;;;;;;16.58;11.90;;;;;;;;;;5069806;28;20033;-50
2023/09/21 13:04:55;;;;;;;16.60;12.98;;;;;;;;;;5069937;28;20032;-57
2023/09/21 13:07:23;;;;;;;16.10;13.13;;;;;;;;;;5070076;28;20580;-48
2023/09/21 13:09:49;;;;;;;17.33;13.27;;;;;;;;;;5069504;28;20024;-57
2023/09/21 13:12:15;;;;;;;16.13;12.68;;;;;;;;;;5069488;28;20035;-53
2023/09/21 13:14:41;;;;;;;17.90;12.80;;;;;;;;;;5051682;28;20021;-48
2023/09/21 13:17:07;;;;;;;17.38;13.27;;;;;;;;;;5069664;28;20021;-57
2023/09/21 13:19:33;;;;;;;16.52;12.20;;;;;;;;;;5069590;28;20577;-54
2023/09/21 13:21:59;;;;;;;17.23;12.90;;;;;;;;;;5069532;28;20021;-51
2023/09/21 13:24:25;;;;;;;17.30;13.15;;;;;;;;;;5069569;28;20096;-51
2023/09/21 13:26:51;;;;;;;16.92;13.02;;;;;;;;;;5071214;28;20730;-53
2023/09/21 13:29:18;;;;;;;18.23;13.23;;;;;;;;;;5064271;28;20031;-58
2023/09/21 13:31:44;;;;;;;18.20;13.70;;;;;;;;;;5053367;28;20212;-55
2023/09/21 13:34:10;;;;;;;17.98;13.23;;;;;;;;;;5053388;28;20029;-52
2023/09/21 13:36:36;;;;;;;16.30;13.23;;;;;;;;;;5035168;28;20068;-52
2023/09/21 13:39:02;;;;;;;17.23;12.82;;;;;;;;;;5053578;28;20017;-56
2023/09/21 13:41:28;;;;;;;17.75;12.70;;;;;;;;;;5053603;28;20461;-56
2023/09/21 13:43:54;;;;;;;18.20;13.40;;;;;;;;;;5053258;28;20066;-55
2023/09/21 13:46:20;;;;;;;16.92;13.65;;;;;;;;;;5035580;28;20104;-52
2023/09/21 13:48:46;;;;;;;17.52;13.25;;;;;;;;;;5053442;28;20086;-58
2023/09/21 13:51:12;;;;;;;18.55;13.40;;;;;;;;;;5053269;28;20040;-57
2023/09/21 13:53:38;;;;;;;17.63;13.20;;;;;;;;;;5052969;28;20029;-54
2023/09/21 13:56:04;;;;;;;17.50;13.32;;;;;;;;;;5052768;28;20029;-57
2023/09/21 13:58:30;;;;;;;17.90;12.48;;;;;;;;;;5052565;28;20017;-54
2023/09/21 14:00:57;;;;;;;17.83;11.80;;;;;;;;;;5050796;28;20034;-56
2023/09/21 14:03:23;;;;;;;16.73;12.15;;;;;;;;;;5072622;28;20095;-51
2023/09/21 14:05:49;;;;;;;16.80;13.55;;;;;;;;;;5051335;28;20074;-59
2023/09/21 14:08:22;;;;;;;17.30;13.15;;;;;;;;;;5069496;28;20048;-57
2023/09/21 14:10:48;;;;;;;18.60;14.45;;;;;;;;;;5072282;28;20029;-52
2023/09/21 14:13:15;;;;;;;17.38;12.60;;;;;;;;;;5072031;28;20028;-55
2023/09/21 14:15:41;;;;;;;17.13;13.05;;;;;;;;;;5072312;28;20113;-53
2023/09/21 14:18:07;;;;;;;17.77;12.30;;;;;;;;;;5072347;28;20025;-55
2023/09/21 14:20:33;;;;;;;16.45;12.70;;;;;;;;;;5054019;28;20112;-55